Barfleur — FNIE — position and weather

sailwx.info

Track history (hours):
 
Tides and Currents Weather Stations Pressure Air Temp Water Temp Dewpoint Dewpoint Depression Visibility Wind Speed Wind Dir Waves Ship Positions

Barfleur

Operator: Brittany Ferries

Last reported at 2019-Jun-16 00:30 UTC. Time now 2019-Jun-16 00:37 UTC.
Position N 49°50' W 001°38'.

Length 158 m; draft 5 m.

Type: Ship. MMSI: 227289000.

Date/timePositionNaut miles runAvg speedWind from/ knotsBaromVisibWave heightAir tempDewpointWater temp
2019-Jun-16 00:30N 49°50' W 001°38'611.8
2019-Jun-16 00:00N 49°56' W 001°40'612.1
2019-Jun-15 23:30N 50°02' W 001°42'612.5
2019-Jun-15 23:00N 50°08' W 001°43'712.7
2019-Jun-15 22:29N 50°14' W 001°44'712.6
2019-Jun-15 21:58N 50°21' W 001°46'612.7
2019-Jun-15 21:28N 50°27' W 001°49'612.8
2019-Jun-15 21:00N 50°32' W 001°52'612.5
2019-Jun-15 20:30N 50°38' W 001°55'5 9.5
2019-Jun-15 20:00N 50°42' W 001°59'0 0.9
2019-Jun-15 19:30N 50°42' W 001°59'0 0.0
2019-Jun-15 19:00N 50°42' W 001°59'0 0.0
2019-Jun-15 18:30N 50°42' W 001°59'0 0.1
2019-Jun-15 18:01N 50°42' W 001°60'4 7.7
2019-Jun-15 17:30N 50°40' W 001°55'816.8
2019-Jun-15 17:00N 50°32' W 001°51'917.2
2019-Jun-15 16:29N 50°23' W 001°49'1217.2
2019-Jun-15 15:47N 50°11' W 001°45'517.5
2019-Jun-15 15:30N 50°06' W 001°47'917.2
2019-Jun-15 15:00N 49°58' W 001°46'917.4
2019-Jun-15 14:30N 49°49' W 001°43'917.4
2019-Jun-15 14:00N 49°41' W 001°39'3 5.1
2019-Jun-15 13:30N 49°39' W 001°37'0 0.0
2019-Jun-15 12:56N 49°39' W 001°37'0 0.0
2019-Jun-15 12:30N 49°39' W 001°37'0 0.0
2019-Jun-15 12:00N 49°39' W 001°37'0 0.0
2019-Jun-15 11:30N 49°39' W 001°37'0 0.0
2019-Jun-15 11:00N 49°39' W 001°37'0 0.0
2019-Jun-15 10:30N 49°39' W 001°37'0 0.0
2019-Jun-15 10:00N 49°39' W 001°37'0 0.0
2019-Jun-15 09:31N 49°39' W 001°37'0 0.0
2019-Jun-15 09:00N 49°39' W 001°37'0 0.0
2019-Jun-15 08:30N 49°39' W 001°37'0 0.0
2019-Jun-15 08:00N 49°39' W 001°37'0 0.0
2019-Jun-15 07:31N 49°39' W 001°37'0 0.0
2019-Jun-15 07:00N 49°39' W 001°37'0 0.0
2019-Jun-15 06:30N 49°39' W 001°37'0 0.0
2019-Jun-15 06:00N 49°39' W 001°37'0 0.0
2019-Jun-15 05:30N 49°39' W 001°37'0 0.0
2019-Jun-15 05:00N 49°39' W 001°37'3 5.8
2019-Jun-15 04:30N 49°41' W 001°40'612.0
2019-Jun-15 04:01N 49°47' W 001°41'1 2.9
2019-Jun-15 03:31N 49°47' W 001°43'1 1.7
2019-Jun-15 03:00N 49°47' W 001°44'0 0.8
2019-Jun-15 02:30N 49°46' W 001°45'2 1.3
2019-Jun-15 01:18N 49°46' W 001°43'1 1.9
2019-Jun-15 00:54N 49°46' W 001°42'711.0
2019-Jun-15 00:18N 49°52' W 001°45'412.3
2019-Jun-14 23:58N 49°56' W 001°46'612.8
2019-Jun-14 23:30N 50°02' W 001°47'2712.7
2019-Jun-14 21:23N 50°29' W 001°50'512.8
2019-Jun-14 21:00N 50°34' W 001°52'613.0
2019-Jun-14 20:30N 50°40' W 001°56'3 6.4
2019-Jun-14 19:59N 50°42' W 001°59'0 0.0
2019-Jun-14 19:31N 50°42' W 001°59'0 0.0
2019-Jun-14 19:01N 50°42' W 001°59'0 0.0
2019-Jun-14 18:30N 50°42' W 001°59'0 0.0
2019-Jun-14 18:01N 50°42' W 001°59'4 7.4
2019-Jun-14 17:31N 50°40' W 001°56'816.6
2019-Jun-14 17:00N 50°32' W 001°51'917.0
2019-Jun-14 16:27N 50°23' W 001°48'817.0
2019-Jun-14 15:57N 50°14' W 001°46'917.7
2019-Jun-14 15:27N 50°05' W 001°47'917.3
2019-Jun-14 14:57N 49°57' W 001°45'817.2
2019-Jun-14 14:30N 49°49' W 001°43'917.1
2019-Jun-14 14:00N 49°41' W 001°40'3 5.3
2019-Jun-14 13:28N 49°39' W 001°37'0 0.0
2019-Jun-14 12:59N 49°39' W 001°37'0 0.0
2019-Jun-14 12:30N 49°39' W 001°37'0 0.0
2019-Jun-14 12:00N 49°39' W 001°37'3 5.3
2019-Jun-14 11:30N 49°41' W 001°39'816.2
2019-Jun-14 11:00N 49°49' W 001°41'816.1
2019-Jun-14 10:30N 49°57' W 001°43'816.5
2019-Jun-14 10:00N 50°05' W 001°45'1116.7
2019-Jun-14 09:19N 50°16' W 001°47'1316.6
2019-Jun-14 08:33N 50°29' W 001°50'116.5
2019-Jun-14 08:30N 50°30' W 001°50'816.5
2019-Jun-14 08:00N 50°37' W 001°54'611.4
2019-Jun-14 07:30N 50°42' W 001°59'1 1.1
2019-Jun-14 07:00N 50°42' W 001°59'0 0.0
2019-Jun-14 06:30N 50°42' W 001°59'0 0.0
2019-Jun-14 06:00N 50°42' W 001°59'2 3.2
2019-Jun-14 05:31N 50°42' W 001°57'612.5
2019-Jun-14 05:00N 50°36' W 001°53'713.6
2019-Jun-14 04:30N 50°30' W 001°49'4812.0
2019-Jun-14 00:31N 49°42' W 001°38'3 0.6
2019-Jun-13 20:22N 49°40' W 001°37'9 2.3
2019-Jun-13 16:27N 49°49' W 001°37'816.8
2019-Jun-13 15:57N 49°57' W 001°39'1016.5
2019-Jun-13 15:21N 50°07' W 001°43'2316.2
2019-Jun-13 13:58N 50°29' W 001°51'716.0
2019-Jun-13 13:30N 50°36' W 001°53'612.4
2019-Jun-13 13:01N 50°42' W 001°57'2 3.0
2019-Jun-13 12:27N 50°42' W 001°59'0 0.0
2019-Jun-13 11:57N 50°42' W 001°59'0 0.0
2019-Jun-13 11:30N 50°42' W 001°59'0 0.1
2019-Jun-13 11:00N 50°42' W 001°59'4 8.2
2019-Jun-13 10:30N 50°39' W 001°55'815.6
2019-Jun-13 10:00N 50°32' W 001°51'2415.5
2019-Jun-13 08:28N 50°08' W 001°44'1217.3
2019-Jun-13 07:46N 49°57' W 001°40'717.2
2019-Jun-13 07:22N 49°50' W 001°38'916.9
2019-Jun-13 06:48N 49°40' W 001°36'2 1.0
2019-Jun-13 04:38N 49°40' W 001°39'314.3
2019-Jun-13 04:25N 49°43' W 001°39'1 2.6
2019-Jun-13 03:55N 49°45' W 001°40'1 1.7
2019-Jun-13 03:30N 49°45' W 001°39'1 1.8
2019-Jun-13 03:01N 49°44' W 001°38'2 3.3
2019-Jun-13 02:31N 49°44' W 001°40'1 2.7
2019-Jun-13 02:00N 49°44' W 001°42'1 1.7
2019-Jun-13 01:31N 49°44' W 001°44'2 3.9
2019-Jun-13 01:01N 49°44' W 001°41'611.2
2019-Jun-13 00:30N 49°50' W 001°40'612.8
2019-Jun-13 00:00N 49°56' W 001°40'713.0
2019-Jun-12 23:30N 50°02' W 001°42'612.8
2019-Jun-12 23:01N 50°09' W 001°43'612.3
2019-Jun-12 22:31N 50°15' W 001°46'1812.6
2019-Jun-12 21:06N 50°32' W 001°53'113.5
2019-Jun-12 21:00N 50°33' W 001°53'713.7
2019-Jun-12 20:30N 50°40' W 001°56'4 7.1
2019-Jun-12 20:00N 50°42' W 001°59'0 0.0
2019-Jun-12 19:30N 50°42' W 001°59'0 0.0
2019-Jun-12 18:59N 50°42' W 001°59'0 0.0
2019-Jun-12 18:30N 50°42' W 001°59'0 0.0
2019-Jun-12 18:00N 50°42' W 001°59'3 5.1
2019-Jun-12 17:31N 50°41' W 001°57'815.1
2019-Jun-12 17:00N 50°34' W 001°52'2516.6
2019-Jun-12 15:30N 50°09' W 001°43'816.0
2019-Jun-12 15:00N 50°02' W 001°39'917.1
2019-Jun-12 14:30N 49°53' W 001°39'816.6
2019-Jun-12 14:00N 49°45' W 001°37'612.3
2019-Jun-12 13:30N 49°39' W 001°37'0 0.2
2019-Jun-12 13:00N 49°39' W 001°37'0 0.0
2019-Jun-12 12:30N 49°39' W 001°37'0 0.0
2019-Jun-12 12:00N 49°39' W 001°37'3 5.9
2019-Jun-12 11:31N 49°41' W 001°40'917.2
2019-Jun-12 11:01N 49°50' W 001°42'816.8
2019-Jun-12 10:30N 49°58' W 001°45'816.3
2019-Jun-12 10:00N 50°05' W 001°51'815.7
2019-Jun-12 09:30N 50°13' W 001°52'1715.9
2019-Jun-12 08:24N 50°30' W 001°52'716.6
2019-Jun-12 08:00N 50°37' W 001°54'611.9
2019-Jun-12 07:30N 50°42' W 001°58'1 1.8
2019-Jun-12 07:00N 50°42' W 001°59'0 0.0
2019-Jun-12 06:30N 50°42' W 001°59'0 0.0
2019-Jun-12 06:00N 50°42' W 001°59'2 3.2
2019-Jun-12 05:30N 50°42' W 001°57'612.3
2019-Jun-12 05:00N 50°36' W 001°53'713.3
2019-Jun-12 04:30N 50°30' W 001°52'3012.1
2019-Jun-12 02:01N 49°59' W 001°52'612.3
2019-Jun-12 01:30N 49°53' W 001°52'611.2
2019-Jun-12 01:01N 49°48' W 001°49'3 6.9
2019-Jun-12 00:30N 49°45' W 001°48'0 0.8
2019-Jun-12 00:00N 49°45' W 001°48'0 0.9
2019-Jun-11 23:31N 49°45' W 001°48'2 4.0
2019-Jun-11 23:01N 49°43' W 001°47'1 1.7
2019-Jun-11 22:30N 49°43' W 001°46'1 2.2
2019-Jun-11 22:01N 49°43' W 001°44'1 2.7
2019-Jun-11 21:30N 49°43' W 001°42'2 3.1
2019-Jun-11 21:00N 49°43' W 001°39'3 6.3
2019-Jun-11 20:30N 49°40' W 001°39'2 4.2
2019-Jun-11 20:00N 49°39' W 001°37'0 0.0
2019-Jun-11 19:30N 49°39' W 001°37'0 0.0
2019-Jun-11 19:00N 49°39' W 001°37'0 0.0
2019-Jun-11 18:31N 49°39' W 001°37'0 0.0
2019-Jun-11 18:00N 49°39' W 001°37'0 0.0
2019-Jun-11 17:30N 49°39' W 001°37'0 0.6
2019-Jun-11 17:01N 49°39' W 001°37'612.6
2019-Jun-11 16:30N 49°45' W 001°37'816.2
2019-Jun-11 16:00N 49°53' W 001°40'917.3
2019-Jun-11 15:30N 50°02' W 001°44'917.1
2019-Jun-11 15:00N 50°10' W 001°44'1817.4
2019-Jun-11 13:58N 50°28' W 001°50'816.8
2019-Jun-11 13:30N 50°35' W 001°53'713.2
2019-Jun-11 13:01N 50°41' W 001°57'2 3.5
2019-Jun-11 12:31N 50°42' W 001°59'0 0.0
2019-Jun-11 11:59N 50°42' W 001°59'0 0.0
2019-Jun-11 11:30N 50°42' W 001°59'0 0.2
2019-Jun-11 11:00N 50°42' W 001°59'4 8.0
2019-Jun-11 10:31N 50°39' W 001°55'816.4
2019-Jun-11 10:00N 50°32' W 001°51'1417.2
2019-Jun-11 09:12N 50°18' W 001°50'417.3
2019-Jun-11 09:00N 50°14' W 001°50'816.0
2019-Jun-11 08:30N 50°07' W 001°47'815.8
2019-Jun-11 08:00N 49°59' W 001°45'816.1
2019-Jun-11 07:31N 49°51' W 001°42'816.4
2019-Jun-11 07:01N 49°43' W 001°40'5 9.0
2019-Jun-11 06:30N 49°39' W 001°37'0 0.0
2019-Jun-11 06:00N 49°39' W 001°37'0 0.0
2019-Jun-11 05:30N 49°39' W 001°37'0 0.0
2019-Jun-11 05:00N 49°39' W 001°37'3 5.8
2019-Jun-11 04:30N 49°41' W 001°39'4 7.6
2019-Jun-11 04:00N 49°42' W 001°34'2 3.1
2019-Jun-11 03:30N 49°42' W 001°31'1 1.8
2019-Jun-11 03:00N 49°42' W 001°33'1 2.0
2019-Jun-11 02:30N 49°42' W 001°34'1 2.4
2019-Jun-11 02:00N 49°43' W 001°36'1 2.9
2019-Jun-11 01:30N 49°43' W 001°38'1 2.9
2019-Jun-11 01:00N 49°43' W 001°41'4 7.8
2019-Jun-11 00:30N 49°47' W 001°40'713.2
2019-Jun-11 00:00N 49°53' W 001°41'713.5
2019-Jun-10 23:31N 49°60' W 001°42'713.6
2019-Jun-10 23:00N 50°07' W 001°44'713.8
2019-Jun-10 22:30N 50°13' W 001°47'1613.8
2019-Jun-10 21:21N 50°29' W 001°51'514.3
2019-Jun-10 21:00N 50°34' W 001°53'713.4
2019-Jun-10 20:30N 50°40' W 001°56'3 6.1
2019-Jun-10 20:00N 50°42' W 001°59'0 0.0
2019-Jun-10 19:30N 50°42' W 001°59'0 0.0
2019-Jun-10 19:00N 50°42' W 001°59'0 0.0
2019-Jun-10 18:30N 50°42' W 001°59'0 0.2
2019-Jun-10 18:00N 50°42' W 001°60'4 9.0
2019-Jun-10 17:30N 50°39' W 001°55'816.5
2019-Jun-10 17:00N 50°31' W 001°50'1916.4
2019-Jun-10 15:51N 50°13' W 001°46'615.1
2019-Jun-10 15:27N 50°07' W 001°44'715.6
2019-Jun-10 15:00N 49°60' W 001°43'815.4
2019-Jun-10 14:31N 49°52' W 001°42'714.9
2019-Jun-10 14:00N 49°45' W 001°40'612.3
2019-Jun-10 13:30N 49°39' W 001°37'0 0.3
2019-Jun-10 12:59N 49°39' W 001°37'0 0.0
2019-Jun-10 12:31N 49°39' W 001°37'0 0.0
2019-Jun-10 12:00N 49°39' W 001°37'4 8.0
2019-Jun-10 11:30N 49°42' W 001°40'816.5
2019-Jun-10 11:01N 49°50' W 001°43'816.2
2019-Jun-10 10:30N 49°58' W 001°47'815.9
2019-Jun-10 10:01N 50°06' W 001°47'815.8
2019-Jun-10 09:30N 50°14' W 001°49'816.0
2019-Jun-10 09:00N 50°22' W 001°49'816.0
2019-Jun-10 08:30N 50°30' W 001°50'816.2
2019-Jun-10 08:00N 50°37' W 001°54'611.3
2019-Jun-10 07:30N 50°42' W 001°58'1 1.2
2019-Jun-10 06:57N 50°42' W 001°59'0 0.0
2019-Jun-10 06:26N 50°42' W 001°59'0 0.0
2019-Jun-10 06:00N 50°42' W 001°59'2 3.5
2019-Jun-10 05:30N 50°41' W 001°57'611.9
2019-Jun-10 05:00N 50°36' W 001°53'714.1
2019-Jun-10 04:30N 50°29' W 001°49'1013.3
2019-Jun-10 03:43N 50°19' W 001°47'1512.2
2019-Jun-10 02:29N 50°05' W 001°42'612.0
2019-Jun-10 02:00N 49°59' W 001°40'612.2
2019-Jun-10 01:31N 49°53' W 001°38'612.0
2019-Jun-10 01:01N 49°47' W 001°35'5 9.3
2019-Jun-10 00:31N 49°43' W 001°33'1 2.3
2019-Jun-10 00:00N 49°43' W 001°35'1 2.5
2019-Jun-09 23:31N 49°43' W 001°37'1 2.1
2019-Jun-09 23:01N 49°43' W 001°38'1 1.6
2019-Jun-09 22:30N 49°43' W 001°39'1 1.1
2019-Jun-09 22:00N 49°43' W 001°40'0 0.5
2019-Jun-09 21:30N 49°43' W 001°41'0 0.6
2019-Jun-09 21:01N 49°44' W 001°40'3 6.1
2019-Jun-09 20:31N 49°41' W 001°39'2 4.9
2019-Jun-09 20:00N 49°39' W 001°37'0 0.0
2019-Jun-09 19:29N 49°39' W 001°37'0 0.0
2019-Jun-09 18:59N 49°39' W 001°37'0 0.0
2019-Jun-09 18:29N 49°39' W 001°37'0 0.0
2019-Jun-09 17:59N 49°39' W 001°37'0 0.0
2019-Jun-09 17:30N 49°39' W 001°37'1 1.2
2019-Jun-09 17:00N 49°39' W 001°37'613.0
2019-Jun-09 16:31N 49°45' W 001°41'816.1
2019-Jun-09 16:01N 49°53' W 001°43'816.1
2019-Jun-09 15:30N 50°01' W 001°44'816.2
2019-Jun-09 15:01N 50°09' W 001°46'816.1
2019-Jun-09 14:31N 50°17' W 001°47'916.1
2019-Jun-09 13:56N 50°26' W 001°51'715.6
2019-Jun-09 13:31N 50°33' W 001°52'714.5
2019-Jun-09 13:00N 50°40' W 001°56'4 6.8
2019-Jun-09 12:28N 50°42' W 001°59'0 0.0
2019-Jun-09 11:58N 50°42' W 001°59'0 0.0
2019-Jun-09 11:31N 50°42' W 001°59'2 3.1
2019-Jun-09 11:00N 50°42' W 001°57'612.8
2019-Jun-09 10:30N 50°36' W 001°53'2315.9
2019-Jun-09 09:03N 50°13' W 001°47'316.1
2019-Jun-09 08:51N 50°10' W 001°46'616.0
2019-Jun-09 08:31N 50°05' W 001°46'816.0
2019-Jun-09 08:01N 49°57' W 001°44'815.9
2019-Jun-09 07:30N 49°49' W 001°41'816.0
2019-Jun-09 07:00N 49°41' W 001°39'3 5.5
2019-Jun-09 06:31N 49°39' W 001°37'0 0.0
2019-Jun-09 06:00N 49°39' W 001°37'0 0.0
2019-Jun-09 05:31N 49°39' W 001°37'0 0.0
2019-Jun-09 05:01N 49°39' W 001°37'6 6.1
2019-Jun-09 04:00N 49°44' W 001°42'1 1.8
2019-Jun-09 03:31N 49°43' W 001°42'1 1.1
2019-Jun-09 03:01N 49°43' W 001°41'0 0.5
2019-Jun-09 02:30N 49°43' W 001°41'0 0.1
2019-Jun-09 02:00N 49°43' W 001°41'0 0.4
2019-Jun-09 01:31N 49°43' W 001°41'2 3.7
2019-Jun-09 01:01N 49°45' W 001°41'612.7
2019-Jun-09 00:31N 49°51' W 001°41'612.2
2019-Jun-09 00:00N 49°57' W 001°41'612.6
2019-Jun-08 23:30N 50°03' W 001°44'612.4
2019-Jun-08 23:01N 50°09' W 001°46'612.4
2019-Jun-08 22:30N 50°15' W 001°47'912.3
2019-Jun-08 21:46N 50°24' W 001°50'312.3
2019-Jun-08 21:30N 50°28' W 001°51'611.8
2019-Jun-08 21:00N 50°33' W 001°53'611.6
2019-Jun-08 20:30N 50°39' W 001°55'5 7.7
2019-Jun-08 19:55N 50°42' W 001°59'0 0.0
2019-Jun-08 19:28N 50°42' W 001°59'0 0.0
2019-Jun-08 19:00N 50°42' W 001°59'0 0.0
2019-Jun-08 18:30N 50°42' W 001°59'2 3.5
2019-Jun-08 18:00N 50°42' W 001°57'612.8
2019-Jun-08 17:30N 50°36' W 001°53'2116.6
2019-Jun-08 16:16N 50°15' W 001°47'516.8
2019-Jun-08 15:58N 50°10' W 001°46'816.8
2019-Jun-08 15:31N 50°03' W 001°45'816.9
2019-Jun-08 15:00N 49°55' W 001°41'816.7
2019-Jun-08 14:31N 49°47' W 001°37'715.0
2019-Jun-08 14:01N 49°39' W 001°37'0 0.7
2019-Jun-08 13:31N 49°39' W 001°37'0 0.0
2019-Jun-08 12:59N 49°39' W 001°37'0 0.0
2019-Jun-08 12:30N 49°39' W 001°37'0 0.0
2019-Jun-08 11:59N 49°39' W 001°37'0 0.0
2019-Jun-08 11:29N 49°39' W 001°37'0 0.0
2019-Jun-08 10:59N 49°39' W 001°37'0 0.0
2019-Jun-08 10:29N 49°39' W 001°37'0 0.0
2019-Jun-08 09:59N 49°39' W 001°37'0 0.0
2019-Jun-08 09:29N 49°39' W 001°37'0 0.0
2019-Jun-08 08:59N 49°39' W 001°37'0 0.0
2019-Jun-08 08:30N 49°39' W 001°37'0 0.0
2019-Jun-08 07:55N 49°39' W 001°37'0 0.0
2019-Jun-08 07:29N 49°39' W 001°37'0 0.0
2019-Jun-08 06:59N 49°39' W 001°37'0 0.0
2019-Jun-08 06:30N 49°39' W 001°37'0 0.0
2019-Jun-08 05:59N 49°39' W 001°37'0 0.0
2019-Jun-08 05:29N 49°39' W 001°37'0 0.0
2019-Jun-08 05:00N 49°39' W 001°37'3 6.8
2019-Jun-08 04:30N 49°42' W 001°40'2 4.5
2019-Jun-08 04:00N 49°44' W 001°39'0 0.3
2019-Jun-08 03:30N 49°44' W 001°39'0 0.2
2019-Jun-08 03:00N 49°44' W 001°39'0 0.8
2019-Jun-08 02:30N 49°44' W 001°39'1 1.4
2019-Jun-08 02:01N 49°43' W 001°40'1 2.8
2019-Jun-08 01:31N 49°42' W 001°39'5 9.7
2019-Jun-08 01:00N 49°47' W 001°38'611.9
2019-Jun-08 00:30N 49°53' W 001°38'611.2
2019-Jun-08 00:00N 49°58' W 001°39'611.3
2019-Jun-07 23:30N 50°04' W 001°40'611.7
2019-Jun-07 23:00N 50°10' W 001°42'612.6
2019-Jun-07 22:30N 50°15' W 001°45'913.1
2019-Jun-07 21:48N 50°24' W 001°50'412.5
2019-Jun-07 21:30N 50°28' W 001°51'612.3
2019-Jun-07 21:00N 50°34' W 001°53'611.9
2019-Jun-07 20:31N 50°40' W 001°55'4 7.6
2019-Jun-07 20:00N 50°42' W 001°59'0 0.0
2019-Jun-07 19:30N 50°42' W 001°59'0 0.0
2019-Jun-07 19:00N 50°42' W 001°59'0 0.0
2019-Jun-07 18:30N 50°42' W 001°59'3 5.8
2019-Jun-07 18:00N 50°40' W 001°56'714.3
2019-Jun-07 17:30N 50°34' W 001°52'1316.1
2019-Jun-07 16:41N 50°20' W 001°50'316.2
2019-Jun-07 16:30N 50°18' W 001°50'1016.8
2019-Jun-07 15:53N 50°08' W 001°46'717.5
2019-Jun-07 15:30N 50°01' W 001°42'817.0
2019-Jun-07 15:01N 49°53' W 001°39'816.9
2019-Jun-07 14:31N 49°45' W 001°37'612.0
2019-Jun-07 14:01N 49°39' W 001°37'0 0.0
2019-Jun-07 13:28N 49°39' W 001°37'0 0.0
2019-Jun-07 13:00N 49°39' W 001°37'0 0.0
2019-Jun-07 12:30N 49°39' W 001°37'2 4.9
2019-Jun-07 12:00N 49°41' W 001°36'816.7
2019-Jun-07 11:30N 49°50' W 001°35'816.7
2019-Jun-07 11:00N 49°58' W 001°36'917.2
2019-Jun-07 10:30N 50°06' W 001°41'816.7
2019-Jun-07 10:00N 50°14' W 001°45'1616.3
2019-Jun-07 09:01N 50°29' W 001°52'116.1
2019-Jun-07 08:57N 50°30' W 001°52'715.7
2019-Jun-07 08:30N 50°37' W 001°54'510.5
2019-Jun-07 08:01N 50°42' W 001°57'1 2.5
2019-Jun-07 07:26N 50°42' W 001°59'0 0.0
2019-Jun-07 06:59N 50°42' W 001°59'0 0.0
2019-Jun-07 06:29N 50°42' W 001°59'0 0.0
2019-Jun-07 06:01N 50°42' W 001°59'2 3.6
2019-Jun-07 05:30N 50°41' W 001°57'5 9.7
2019-Jun-07 05:00N 50°37' W 001°54'815.1
2019-Jun-07 04:30N 50°30' W 001°50'815.4
2019-Jun-07 04:01N 50°22' W 001°49'713.9
2019-Jun-07 03:30N 50°15' W 001°48'612.6
2019-Jun-07 03:00N 50°09' W 001°46'612.9
2019-Jun-07 02:30N 50°03' W 001°44'612.7
2019-Jun-07 02:00N 49°57' W 001°42'612.8
2019-Jun-07 01:30N 49°50' W 001°40'612.4
2019-Jun-07 01:00N 49°44' W 001°39'1 2.5
2019-Jun-07 00:30N 49°43' W 001°37'0 0.7
2019-Jun-07 00:00N 49°43' W 001°37'0 0.4
2019-Jun-06 23:30N 49°44' W 001°37'0 1.0
2019-Jun-06 23:00N 49°44' W 001°38'1 1.3
2019-Jun-06 22:30N 49°44' W 001°39'1 1.2
2019-Jun-06 22:00N 49°44' W 001°40'1 1.4
2019-Jun-06 21:30N 49°44' W 001°41'1 1.9
2019-Jun-06 21:00N 49°43' W 001°42'4 7.2
2019-Jun-06 20:30N 49°40' W 001°39'2 4.2
2019-Jun-06 19:58N 49°39' W 001°37'0 0.0
2019-Jun-06 19:30N 49°39' W 001°37'0 0.0
2019-Jun-06 19:00N 49°39' W 001°37'0 0.0
2019-Jun-06 18:30N 49°39' W 001°37'0 0.0
2019-Jun-06 18:00N 49°39' W 001°37'0 0.0
2019-Jun-06 17:30N 49°39' W 001°37'1 1.1
2019-Jun-06 17:00N 49°39' W 001°37'713.2
2019-Jun-06 16:30N 49°46' W 001°41'815.8
2019-Jun-06 16:00N 49°53' W 001°43'815.9
2019-Jun-06 15:30N 50°01' W 001°44'816.6
2019-Jun-06 15:00N 50°09' W 001°46'816.0
2019-Jun-06 14:30N 50°17' W 001°48'916.3
2019-Jun-06 13:57N 50°26' W 001°51'816.9
2019-Jun-06 13:30N 50°34' W 001°53'815.4
2019-Jun-06 13:00N 50°41' W 001°57'2 4.3
2019-Jun-06 12:29N 50°42' W 001°59'0 0.0
2019-Jun-06 11:59N 50°42' W 001°59'0 0.0
2019-Jun-06 11:29N 50°42' W 001°59'1 1.3
2019-Jun-06 11:00N 50°42' W 001°58'611.3
2019-Jun-06 10:30N 50°37' W 001°54'917.3
2019-Jun-06 10:00N 50°29' W 001°51'2516.9
2019-Jun-06 08:32N 50°04' W 001°45'015.9
2019-Jun-06 08:30N 50°04' W 001°45'816.9
2019-Jun-06 08:01N 49°56' W 001°43'816.7
2019-Jun-06 07:30N 49°47' W 001°41'815.2
2019-Jun-06 07:01N 49°40' W 001°38'2 3.0
2019-Jun-06 06:30N 49°39' W 001°37'0 0.0
2019-Jun-06 05:57N 49°39' W 001°37'0 0.0
2019-Jun-06 05:31N 49°39' W 001°37'0 0.0
2019-Jun-06 05:00N 49°39' W 001°37'3 6.1
2019-Jun-06 04:31N 49°41' W 001°40'612.5
2019-Jun-06 04:01N 49°47' W 001°42'2 3.3
2019-Jun-06 03:30N 49°47' W 001°40'2 3.1
2019-Jun-06 03:00N 49°47' W 001°37'1 2.9
2019-Jun-06 02:30N 49°47' W 001°35'1 2.5
2019-Jun-06 02:00N 49°47' W 001°33'1 2.2
2019-Jun-06 01:30N 49°47' W 001°32'1 2.4
2019-Jun-06 01:00N 49°46' W 001°30'510.5
2019-Jun-06 00:30N 49°51' W 001°29'  
Track history (hours):
 
Tides and Currents Weather Stations Pressure Air Temp Water Temp Dewpoint Dewpoint Depression Visibility Wind Speed Wind Dir Waves Ship Positions

Barfleur

Operator: Brittany Ferries

Last reported at 2019-Jun-16 00:30 UTC. Time now 2019-Jun-16 00:37 UTC.
Position N 49°50' W 001°38'.

Length 158 m; draft 5 m.

Type: Ship. MMSI: 227289000.

Date/timePositionNaut miles runAvg speedWind from/ knotsBaromVisibWave heightAir tempDewpointWater temp
2019-Jun-16 00:30N 49°50' W 001°38'611.8
2019-Jun-16 00:00N 49°56' W 001°40'612.1
2019-Jun-15 23:30N 50°02' W 001°42'612.5
2019-Jun-15 23:00N 50°08' W 001°43'712.7
2019-Jun-15 22:29N 50°14' W 001°44'712.6
2019-Jun-15 21:58N 50°21' W 001°46'612.7
2019-Jun-15 21:28N 50°27' W 001°49'612.8
2019-Jun-15 21:00N 50°32' W 001°52'612.5
2019-Jun-15 20:30N 50°38' W 001°55'5 9.5
2019-Jun-15 20:00N 50°42' W 001°59'0 0.9
2019-Jun-15 19:30N 50°42' W 001°59'0 0.0
2019-Jun-15 19:00N 50°42' W 001°59'0 0.0
2019-Jun-15 18:30N 50°42' W 001°59'0 0.1
2019-Jun-15 18:01N 50°42' W 001°60'4 7.7
2019-Jun-15 17:30N 50°40' W 001°55'816.8
2019-Jun-15 17:00N 50°32' W 001°51'917.2
2019-Jun-15 16:29N 50°23' W 001°49'1217.2
2019-Jun-15 15:47N 50°11' W 001°45'517.5
2019-Jun-15 15:30N 50°06' W 001°47'917.2
2019-Jun-15 15:00N 49°58' W 001°46'917.4
2019-Jun-15 14:30N 49°49' W 001°43'917.4
2019-Jun-15 14:00N 49°41' W 001°39'3 5.1
2019-Jun-15 13:30N 49°39' W 001°37'0 0.0
2019-Jun-15 12:56N 49°39' W 001°37'0 0.0
2019-Jun-15 12:30N 49°39' W 001°37'0 0.0
2019-Jun-15 12:00N 49°39' W 001°37'0 0.0
2019-Jun-15 11:30N 49°39' W 001°37'0 0.0
2019-Jun-15 11:00N 49°39' W 001°37'0 0.0
2019-Jun-15 10:30N 49°39' W 001°37'0 0.0
2019-Jun-15 10:00N 49°39' W 001°37'0 0.0
2019-Jun-15 09:31N 49°39' W 001°37'0 0.0
2019-Jun-15 09:00N 49°39' W 001°37'0 0.0
2019-Jun-15 08:30N 49°39' W 001°37'0 0.0
2019-Jun-15 08:00N 49°39' W 001°37'0 0.0
2019-Jun-15 07:31N 49°39' W 001°37'0 0.0
2019-Jun-15 07:00N 49°39' W 001°37'0 0.0
2019-Jun-15 06:30N 49°39' W 001°37'0 0.0
2019-Jun-15 06:00N 49°39' W 001°37'0 0.0
2019-Jun-15 05:30N 49°39' W 001°37'0 0.0
2019-Jun-15 05:00N 49°39' W 001°37'3 5.8
2019-Jun-15 04:30N 49°41' W 001°40'612.0
2019-Jun-15 04:01N 49°47' W 001°41'1 2.9
2019-Jun-15 03:31N 49°47' W 001°43'1 1.7
2019-Jun-15 03:00N 49°47' W 001°44'0 0.8
2019-Jun-15 02:30N 49°46' W 001°45'2 1.3
2019-Jun-15 01:18N 49°46' W 001°43'1 1.9
2019-Jun-15 00:54N 49°46' W 001°42'711.0
2019-Jun-15 00:18N 49°52' W 001°45'412.3
2019-Jun-14 23:58N 49°56' W 001°46'612.8
2019-Jun-14 23:30N 50°02' W 001°47'2712.7
2019-Jun-14 21:23N 50°29' W 001°50'512.8
2019-Jun-14 21:00N 50°34' W 001°52'613.0
2019-Jun-14 20:30N 50°40' W 001°56'3 6.4
2019-Jun-14 19:59N 50°42' W 001°59'0 0.0
2019-Jun-14 19:31N 50°42' W 001°59'0 0.0
2019-Jun-14 19:01N 50°42' W 001°59'0 0.0
2019-Jun-14 18:30N 50°42' W 001°59'0 0.0
2019-Jun-14 18:01N 50°42' W 001°59'4 7.4
2019-Jun-14 17:31N 50°40' W 001°56'816.6
2019-Jun-14 17:00N 50°32' W 001°51'917.0
2019-Jun-14 16:27N 50°23' W 001°48'817.0
2019-Jun-14 15:57N 50°14' W 001°46'917.7
2019-Jun-14 15:27N 50°05' W 001°47'917.3
2019-Jun-14 14:57N 49°57' W 001°45'817.2
2019-Jun-14 14:30N 49°49' W 001°43'917.1
2019-Jun-14 14:00N 49°41' W 001°40'3 5.3
2019-Jun-14 13:28N 49°39' W 001°37'0 0.0
2019-Jun-14 12:59N 49°39' W 001°37'0 0.0
2019-Jun-14 12:30N 49°39' W 001°37'0 0.0
2019-Jun-14 12:00N 49°39' W 001°37'3 5.3
2019-Jun-14 11:30N 49°41' W 001°39'816.2
2019-Jun-14 11:00N 49°49' W 001°41'816.1
2019-Jun-14 10:30N 49°57' W 001°43'816.5
2019-Jun-14 10:00N 50°05' W 001°45'1116.7
2019-Jun-14 09:19N 50°16' W 001°47'1316.6
2019-Jun-14 08:33N 50°29' W 001°50'116.5
2019-Jun-14 08:30N 50°30' W 001°50'816.5
2019-Jun-14 08:00N 50°37' W 001°54'611.4
2019-Jun-14 07:30N 50°42' W 001°59'1 1.1
2019-Jun-14 07:00N 50°42' W 001°59'0 0.0
2019-Jun-14 06:30N 50°42' W 001°59'0 0.0
2019-Jun-14 06:00N 50°42' W 001°59'2 3.2
2019-Jun-14 05:31N 50°42' W 001°57'612.5
2019-Jun-14 05:00N 50°36' W 001°53'713.6
2019-Jun-14 04:30N 50°30' W 001°49'4812.0
2019-Jun-14 00:31N 49°42' W 001°38'3 0.6
2019-Jun-13 20:22N 49°40' W 001°37'9 2.3
2019-Jun-13 16:27N 49°49' W 001°37'816.8
2019-Jun-13 15:57N 49°57' W 001°39'1016.5
2019-Jun-13 15:21N 50°07' W 001°43'2316.2
2019-Jun-13 13:58N 50°29' W 001°51'716.0
2019-Jun-13 13:30N 50°36' W 001°53'612.4
2019-Jun-13 13:01N 50°42' W 001°57'2 3.0
2019-Jun-13 12:27N 50°42' W 001°59'0 0.0
2019-Jun-13 11:57N 50°42' W 001°59'0 0.0
2019-Jun-13 11:30N 50°42' W 001°59'0 0.1
2019-Jun-13 11:00N 50°42' W 001°59'4 8.2
2019-Jun-13 10:30N 50°39' W 001°55'815.6
2019-Jun-13 10:00N 50°32' W 001°51'2415.5
2019-Jun-13 08:28N 50°08' W 001°44'1217.3
2019-Jun-13 07:46N 49°57' W 001°40'717.2
2019-Jun-13 07:22N 49°50' W 001°38'916.9
2019-Jun-13 06:48N 49°40' W 001°36'2 1.0
2019-Jun-13 04:38N 49°40' W 001°39'314.3
2019-Jun-13 04:25N 49°43' W 001°39'1 2.6
2019-Jun-13 03:55N 49°45' W 001°40'1 1.7
2019-Jun-13 03:30N 49°45' W 001°39'1 1.8
2019-Jun-13 03:01N 49°44' W 001°38'2 3.3
2019-Jun-13 02:31N 49°44' W 001°40'1 2.7
2019-Jun-13 02:00N 49°44' W 001°42'1 1.7
2019-Jun-13 01:31N 49°44' W 001°44'2 3.9
2019-Jun-13 01:01N 49°44' W 001°41'611.2
2019-Jun-13 00:30N 49°50' W 001°40'612.8
2019-Jun-13 00:00N 49°56' W 001°40'713.0
2019-Jun-12 23:30N 50°02' W 001°42'612.8
2019-Jun-12 23:01N 50°09' W 001°43'612.3
2019-Jun-12 22:31N 50°15' W 001°46'1812.6
2019-Jun-12 21:06N 50°32' W 001°53'113.5
2019-Jun-12 21:00N 50°33' W 001°53'713.7
2019-Jun-12 20:30N 50°40' W 001°56'4 7.1
2019-Jun-12 20:00N 50°42' W 001°59'0 0.0
2019-Jun-12 19:30N 50°42' W 001°59'0 0.0
2019-Jun-12 18:59N 50°42' W 001°59'0 0.0
2019-Jun-12 18:30N 50°42' W 001°59'0 0.0
2019-Jun-12 18:00N 50°42' W 001°59'3 5.1
2019-Jun-12 17:31N 50°41' W 001°57'815.1
2019-Jun-12 17:00N 50°34' W 001°52'2516.6
2019-Jun-12 15:30N 50°09' W 001°43'816.0
2019-Jun-12 15:00N 50°02' W 001°39'917.1
2019-Jun-12 14:30N 49°53' W 001°39'816.6
2019-Jun-12 14:00N 49°45' W 001°37'612.3
2019-Jun-12 13:30N 49°39' W 001°37'0 0.2
2019-Jun-12 13:00N 49°39' W 001°37'0 0.0
2019-Jun-12 12:30N 49°39' W 001°37'0 0.0
2019-Jun-12 12:00N 49°39' W 001°37'3 5.9
2019-Jun-12 11:31N 49°41' W 001°40'917.2
2019-Jun-12 11:01N 49°50' W 001°42'816.8
2019-Jun-12 10:30N 49°58' W 001°45'816.3
2019-Jun-12 10:00N 50°05' W 001°51'815.7
2019-Jun-12 09:30N 50°13' W 001°52'1715.9
2019-Jun-12 08:24N 50°30' W 001°52'716.6
2019-Jun-12 08:00N 50°37' W 001°54'611.9
2019-Jun-12 07:30N 50°42' W 001°58'1 1.8
2019-Jun-12 07:00N 50°42' W 001°59'0 0.0
2019-Jun-12 06:30N 50°42' W 001°59'0 0.0
2019-Jun-12 06:00N 50°42' W 001°59'2 3.2
2019-Jun-12 05:30N 50°42' W 001°57'612.3
2019-Jun-12 05:00N 50°36' W 001°53'713.3
2019-Jun-12 04:30N 50°30' W 001°52'3012.1
2019-Jun-12 02:01N 49°59' W 001°52'612.3
2019-Jun-12 01:30N 49°53' W 001°52'611.2
2019-Jun-12 01:01N 49°48' W 001°49'3 6.9
2019-Jun-12 00:30N 49°45' W 001°48'0 0.8
2019-Jun-12 00:00N 49°45' W 001°48'0 0.9
2019-Jun-11 23:31N 49°45' W 001°48'2 4.0
2019-Jun-11 23:01N 49°43' W 001°47'1 1.7
2019-Jun-11 22:30N 49°43' W 001°46'1 2.2
2019-Jun-11 22:01N 49°43' W 001°44'1 2.7
2019-Jun-11 21:30N 49°43' W 001°42'2 3.1
2019-Jun-11 21:00N 49°43' W 001°39'3 6.3
2019-Jun-11 20:30N 49°40' W 001°39'2 4.2
2019-Jun-11 20:00N 49°39' W 001°37'0 0.0
2019-Jun-11 19:30N 49°39' W 001°37'0 0.0
2019-Jun-11 19:00N 49°39' W 001°37'0 0.0
2019-Jun-11 18:31N 49°39' W 001°37'0 0.0
2019-Jun-11 18:00N 49°39' W 001°37'0 0.0
2019-Jun-11 17:30N 49°39' W 001°37'0 0.6
2019-Jun-11 17:01N 49°39' W 001°37'612.6
2019-Jun-11 16:30N 49°45' W 001°37'816.2
2019-Jun-11 16:00N 49°53' W 001°40'917.3
2019-Jun-11 15:30N 50°02' W 001°44'917.1
2019-Jun-11 15:00N 50°10' W 001°44'1817.4
2019-Jun-11 13:58N 50°28' W 001°50'816.8
2019-Jun-11 13:30N 50°35' W 001°53'713.2
2019-Jun-11 13:01N 50°41' W 001°57'2 3.5
2019-Jun-11 12:31N 50°42' W 001°59'0 0.0
2019-Jun-11 11:59N 50°42' W 001°59'0 0.0
2019-Jun-11 11:30N 50°42' W 001°59'0 0.2
2019-Jun-11 11:00N 50°42' W 001°59'4 8.0
2019-Jun-11 10:31N 50°39' W 001°55'816.4
2019-Jun-11 10:00N 50°32' W 001°51'1417.2
2019-Jun-11 09:12N 50°18' W 001°50'417.3
2019-Jun-11 09:00N 50°14' W 001°50'816.0
2019-Jun-11 08:30N 50°07' W 001°47'815.8
2019-Jun-11 08:00N 49°59' W 001°45'816.1
2019-Jun-11 07:31N 49°51' W 001°42'816.4
2019-Jun-11 07:01N 49°43' W 001°40'5 9.0
2019-Jun-11 06:30N 49°39' W 001°37'0 0.0
2019-Jun-11 06:00N 49°39' W 001°37'0 0.0
2019-Jun-11 05:30N 49°39' W 001°37'0 0.0
2019-Jun-11 05:00N 49°39' W 001°37'3 5.8
2019-Jun-11 04:30N 49°41' W 001°39'4 7.6
2019-Jun-11 04:00N 49°42' W 001°34'2 3.1
2019-Jun-11 03:30N 49°42' W 001°31'1 1.8
2019-Jun-11 03:00N 49°42' W 001°33'1 2.0
2019-Jun-11 02:30N 49°42' W 001°34'1 2.4
2019-Jun-11 02:00N 49°43' W 001°36'1 2.9
2019-Jun-11 01:30N 49°43' W 001°38'1 2.9
2019-Jun-11 01:00N 49°43' W 001°41'4 7.8
2019-Jun-11 00:30N 49°47' W 001°40'713.2
2019-Jun-11 00:00N 49°53' W 001°41'713.5
2019-Jun-10 23:31N 49°60' W 001°42'713.6
2019-Jun-10 23:00N 50°07' W 001°44'713.8
2019-Jun-10 22:30N 50°13' W 001°47'1613.8
2019-Jun-10 21:21N 50°29' W 001°51'514.3
2019-Jun-10 21:00N 50°34' W 001°53'713.4
2019-Jun-10 20:30N 50°40' W 001°56'3 6.1
2019-Jun-10 20:00N 50°42' W 001°59'0 0.0
2019-Jun-10 19:30N 50°42' W 001°59'0 0.0
2019-Jun-10 19:00N 50°42' W 001°59'0 0.0
2019-Jun-10 18:30N 50°42' W 001°59'0 0.2
2019-Jun-10 18:00N 50°42' W 001°60'4 9.0
2019-Jun-10 17:30N 50°39' W 001°55'816.5
2019-Jun-10 17:00N 50°31' W 001°50'1916.4
2019-Jun-10 15:51N 50°13' W 001°46'615.1
2019-Jun-10 15:27N 50°07' W 001°44'715.6
2019-Jun-10 15:00N 49°60' W 001°43'815.4
2019-Jun-10 14:31N 49°52' W 001°42'714.9
2019-Jun-10 14:00N 49°45' W 001°40'612.3
2019-Jun-10 13:30N 49°39' W 001°37'0 0.3
2019-Jun-10 12:59N 49°39' W 001°37'0 0.0
2019-Jun-10 12:31N 49°39' W 001°37'0 0.0
2019-Jun-10 12:00N 49°39' W 001°37'4 8.0
2019-Jun-10 11:30N 49°42' W 001°40'816.5
2019-Jun-10 11:01N 49°50' W 001°43'816.2
2019-Jun-10 10:30N 49°58' W 001°47'815.9
2019-Jun-10 10:01N 50°06' W 001°47'815.8
2019-Jun-10 09:30N 50°14' W 001°49'816.0
2019-Jun-10 09:00N 50°22' W 001°49'816.0
2019-Jun-10 08:30N 50°30' W 001°50'816.2
2019-Jun-10 08:00N 50°37' W 001°54'611.3
2019-Jun-10 07:30N 50°42' W 001°58'1 1.2
2019-Jun-10 06:57N 50°42' W 001°59'0 0.0
2019-Jun-10 06:26N 50°42' W 001°59'0 0.0
2019-Jun-10 06:00N 50°42' W 001°59'2 3.5
2019-Jun-10 05:30N 50°41' W 001°57'611.9
2019-Jun-10 05:00N 50°36' W 001°53'714.1
2019-Jun-10 04:30N 50°29' W 001°49'1013.3
2019-Jun-10 03:43N 50°19' W 001°47'1512.2
2019-Jun-10 02:29N 50°05' W 001°42'612.0
2019-Jun-10 02:00N 49°59' W 001°40'612.2
2019-Jun-10 01:31N 49°53' W 001°38'612.0
2019-Jun-10 01:01N 49°47' W 001°35'5 9.3
2019-Jun-10 00:31N 49°43' W 001°33'1 2.3
2019-Jun-10 00:00N 49°43' W 001°35'1 2.5
2019-Jun-09 23:31N 49°43' W 001°37'1 2.1
2019-Jun-09 23:01N 49°43' W 001°38'1 1.6
2019-Jun-09 22:30N 49°43' W 001°39'1 1.1
2019-Jun-09 22:00N 49°43' W 001°40'0 0.5
2019-Jun-09 21:30N 49°43' W 001°41'0 0.6
2019-Jun-09 21:01N 49°44' W 001°40'3 6.1
2019-Jun-09 20:31N 49°41' W 001°39'2 4.9
2019-Jun-09 20:00N 49°39' W 001°37'0 0.0
2019-Jun-09 19:29N 49°39' W 001°37'0 0.0
2019-Jun-09 18:59N 49°39' W 001°37'0 0.0
2019-Jun-09 18:29N 49°39' W 001°37'0 0.0
2019-Jun-09 17:59N 49°39' W 001°37'0 0.0
2019-Jun-09 17:30N 49°39' W 001°37'1 1.2
2019-Jun-09 17:00N 49°39' W 001°37'613.0
2019-Jun-09 16:31N 49°45' W 001°41'816.1
2019-Jun-09 16:01N 49°53' W 001°43'816.1
2019-Jun-09 15:30N 50°01' W 001°44'816.2
2019-Jun-09 15:01N 50°09' W 001°46'816.1
2019-Jun-09 14:31N 50°17' W 001°47'916.1
2019-Jun-09 13:56N 50°26' W 001°51'715.6
2019-Jun-09 13:31N 50°33' W 001°52'714.5
2019-Jun-09 13:00N 50°40' W 001°56'4 6.8
2019-Jun-09 12:28N 50°42' W 001°59'0 0.0
2019-Jun-09 11:58N 50°42' W 001°59'0 0.0
2019-Jun-09 11:31N 50°42' W 001°59'2 3.1
2019-Jun-09 11:00N 50°42' W 001°57'612.8
2019-Jun-09 10:30N 50°36' W 001°53'2315.9
2019-Jun-09 09:03N 50°13' W 001°47'316.1
2019-Jun-09 08:51N 50°10' W 001°46'616.0
2019-Jun-09 08:31N 50°05' W 001°46'816.0
2019-Jun-09 08:01N 49°57' W 001°44'815.9
2019-Jun-09 07:30N 49°49' W 001°41'816.0
2019-Jun-09 07:00N 49°41' W 001°39'3 5.5
2019-Jun-09 06:31N 49°39' W 001°37'0 0.0
2019-Jun-09 06:00N 49°39' W 001°37'0 0.0
2019-Jun-09 05:31N 49°39' W 001°37'0 0.0
2019-Jun-09 05:01N 49°39' W 001°37'6 6.1
2019-Jun-09 04:00N 49°44' W 001°42'1 1.8
2019-Jun-09 03:31N 49°43' W 001°42'1 1.1
2019-Jun-09 03:01N 49°43' W 001°41'0 0.5
2019-Jun-09 02:30N 49°43' W 001°41'0 0.1
2019-Jun-09 02:00N 49°43' W 001°41'0 0.4
2019-Jun-09 01:31N 49°43' W 001°41'2 3.7
2019-Jun-09 01:01N 49°45' W 001°41'612.7
2019-Jun-09 00:31N 49°51' W 001°41'612.2
2019-Jun-09 00:00N 49°57' W 001°41'612.6
2019-Jun-08 23:30N 50°03' W 001°44'612.4
2019-Jun-08 23:01N 50°09' W 001°46'612.4
2019-Jun-08 22:30N 50°15' W 001°47'912.3
2019-Jun-08 21:46N 50°24' W 001°50'312.3
2019-Jun-08 21:30N 50°28' W 001°51'611.8
2019-Jun-08 21:00N 50°33' W 001°53'611.6
2019-Jun-08 20:30N 50°39' W 001°55'5 7.7
2019-Jun-08 19:55N 50°42' W 001°59'0 0.0
2019-Jun-08 19:28N 50°42' W 001°59'0 0.0
2019-Jun-08 19:00N 50°42' W 001°59'0 0.0
2019-Jun-08 18:30N 50°42' W 001°59'2 3.5
2019-Jun-08 18:00N 50°42' W 001°57'612.8
2019-Jun-08 17:30N 50°36' W 001°53'2116.6
2019-Jun-08 16:16N 50°15' W 001°47'516.8
2019-Jun-08 15:58N 50°10' W 001°46'816.8
2019-Jun-08 15:31N 50°03' W 001°45'816.9
2019-Jun-08 15:00N 49°55' W 001°41'816.7
2019-Jun-08 14:31N 49°47' W 001°37'715.0
2019-Jun-08 14:01N 49°39' W 001°37'0 0.7
2019-Jun-08 13:31N 49°39' W 001°37'0 0.0
2019-Jun-08 12:59N 49°39' W 001°37'0 0.0
2019-Jun-08 12:30N 49°39' W 001°37'0 0.0
2019-Jun-08 11:59N 49°39' W 001°37'0 0.0
2019-Jun-08 11:29N 49°39' W 001°37'0 0.0
2019-Jun-08 10:59N 49°39' W 001°37'0 0.0
2019-Jun-08 10:29N 49°39' W 001°37'0 0.0
2019-Jun-08 09:59N 49°39' W 001°37'0 0.0
2019-Jun-08 09:29N 49°39' W 001°37'0 0.0
2019-Jun-08 08:59N 49°39' W 001°37'0 0.0
2019-Jun-08 08:30N 49°39' W 001°37'0 0.0
2019-Jun-08 07:55N 49°39' W 001°37'0 0.0
2019-Jun-08 07:29N 49°39' W 001°37'0 0.0
2019-Jun-08 06:59N 49°39' W 001°37'0 0.0
2019-Jun-08 06:30N 49°39' W 001°37'0 0.0
2019-Jun-08 05:59N 49°39' W 001°37'0 0.0
2019-Jun-08 05:29N 49°39' W 001°37'0 0.0
2019-Jun-08 05:00N 49°39' W 001°37'3 6.8
2019-Jun-08 04:30N 49°42' W 001°40'2 4.5
2019-Jun-08 04:00N 49°44' W 001°39'0 0.3
2019-Jun-08 03:30N 49°44' W 001°39'0 0.2
2019-Jun-08 03:00N 49°44' W 001°39'0 0.8
2019-Jun-08 02:30N 49°44' W 001°39'1 1.4
2019-Jun-08 02:01N 49°43' W 001°40'1 2.8
2019-Jun-08 01:31N 49°42' W 001°39'5 9.7
2019-Jun-08 01:00N 49°47' W 001°38'611.9
2019-Jun-08 00:30N 49°53' W 001°38'611.2
2019-Jun-08 00:00N 49°58' W 001°39'611.3
2019-Jun-07 23:30N 50°04' W 001°40'611.7
2019-Jun-07 23:00N 50°10' W 001°42'612.6
2019-Jun-07 22:30N 50°15' W 001°45'913.1
2019-Jun-07 21:48N 50°24' W 001°50'412.5
2019-Jun-07 21:30N 50°28' W 001°51'612.3
2019-Jun-07 21:00N 50°34' W 001°53'611.9
2019-Jun-07 20:31N 50°40' W 001°55'4 7.6
2019-Jun-07 20:00N 50°42' W 001°59'0 0.0
2019-Jun-07 19:30N 50°42' W 001°59'0 0.0
2019-Jun-07 19:00N 50°42' W 001°59'0 0.0
2019-Jun-07 18:30N 50°42' W 001°59'3 5.8
2019-Jun-07 18:00N 50°40' W 001°56'714.3
2019-Jun-07 17:30N 50°34' W 001°52'1316.1
2019-Jun-07 16:41N 50°20' W 001°50'316.2
2019-Jun-07 16:30N 50°18' W 001°50'1016.8
2019-Jun-07 15:53N 50°08' W 001°46'717.5
2019-Jun-07 15:30N 50°01' W 001°42'817.0
2019-Jun-07 15:01N 49°53' W 001°39'816.9
2019-Jun-07 14:31N 49°45' W 001°37'612.0
2019-Jun-07 14:01N 49°39' W 001°37'0 0.0
2019-Jun-07 13:28N 49°39' W 001°37'0 0.0
2019-Jun-07 13:00N 49°39' W 001°37'0 0.0
2019-Jun-07 12:30N 49°39' W 001°37'2 4.9
2019-Jun-07 12:00N 49°41' W 001°36'816.7
2019-Jun-07 11:30N 49°50' W 001°35'816.7
2019-Jun-07 11:00N 49°58' W 001°36'917.2
2019-Jun-07 10:30N 50°06' W 001°41'816.7
2019-Jun-07 10:00N 50°14' W 001°45'1616.3
2019-Jun-07 09:01N 50°29' W 001°52'116.1
2019-Jun-07 08:57N 50°30' W 001°52'715.7
2019-Jun-07 08:30N 50°37' W 001°54'510.5
2019-Jun-07 08:01N 50°42' W 001°57'1 2.5
2019-Jun-07 07:26N 50°42' W 001°59'0 0.0
2019-Jun-07 06:59N 50°42' W 001°59'0 0.0
2019-Jun-07 06:29N 50°42' W 001°59'0 0.0
2019-Jun-07 06:01N 50°42' W 001°59'2 3.6
2019-Jun-07 05:30N 50°41' W 001°57'5 9.7
2019-Jun-07 05:00N 50°37' W 001°54'815.1
2019-Jun-07 04:30N 50°30' W 001°50'815.4
2019-Jun-07 04:01N 50°22' W 001°49'713.9
2019-Jun-07 03:30N 50°15' W 001°48'612.6
2019-Jun-07 03:00N 50°09' W 001°46'612.9
2019-Jun-07 02:30N 50°03' W 001°44'612.7
2019-Jun-07 02:00N 49°57' W 001°42'612.8
2019-Jun-07 01:30N 49°50' W 001°40'612.4
2019-Jun-07 01:00N 49°44' W 001°39'1 2.5
2019-Jun-07 00:30N 49°43' W 001°37'0 0.7
2019-Jun-07 00:00N 49°43' W 001°37'0 0.4
2019-Jun-06 23:30N 49°44' W 001°37'0 1.0
2019-Jun-06 23:00N 49°44' W 001°38'1 1.3
2019-Jun-06 22:30N 49°44' W 001°39'1 1.2
2019-Jun-06 22:00N 49°44' W 001°40'1 1.4
2019-Jun-06 21:30N 49°44' W 001°41'1 1.9
2019-Jun-06 21:00N 49°43' W 001°42'4 7.2
2019-Jun-06 20:30N 49°40' W 001°39'2 4.2
2019-Jun-06 19:58N 49°39' W 001°37'0 0.0
2019-Jun-06 19:30N 49°39' W 001°37'0 0.0
2019-Jun-06 19:00N 49°39' W 001°37'0 0.0
2019-Jun-06 18:30N 49°39' W 001°37'0 0.0
2019-Jun-06 18:00N 49°39' W 001°37'0 0.0
2019-Jun-06 17:30N 49°39' W 001°37'1 1.1
2019-Jun-06 17:00N 49°39' W 001°37'713.2
2019-Jun-06 16:30N 49°46' W 001°41'815.8
2019-Jun-06 16:00N 49°53' W 001°43'815.9
2019-Jun-06 15:30N 50°01' W 001°44'816.6
2019-Jun-06 15:00N 50°09' W 001°46'816.0
2019-Jun-06 14:30N 50°17' W 001°48'916.3
2019-Jun-06 13:57N 50°26' W 001°51'816.9
2019-Jun-06 13:30N 50°34' W 001°53'815.4
2019-Jun-06 13:00N 50°41' W 001°57'2 4.3
2019-Jun-06 12:29N 50°42' W 001°59'0 0.0
2019-Jun-06 11:59N 50°42' W 001°59'0 0.0
2019-Jun-06 11:29N 50°42' W 001°59'1 1.3
2019-Jun-06 11:00N 50°42' W 001°58'611.3
2019-Jun-06 10:30N 50°37' W 001°54'917.3
2019-Jun-06 10:00N 50°29' W 001°51'2516.9
2019-Jun-06 08:32N 50°04' W 001°45'015.9
2019-Jun-06 08:30N 50°04' W 001°45'816.9
2019-Jun-06 08:01N 49°56' W 001°43'816.7
2019-Jun-06 07:30N 49°47' W 001°41'815.2
2019-Jun-06 07:01N 49°40' W 001°38'2 3.0
2019-Jun-06 06:30N 49°39' W 001°37'0 0.0
2019-Jun-06 05:57N 49°39' W 001°37'0 0.0
2019-Jun-06 05:31N 49°39' W 001°37'0 0.0
2019-Jun-06 05:00N 49°39' W 001°37'3 6.1
2019-Jun-06 04:31N 49°41' W 001°40'612.5
2019-Jun-06 04:01N 49°47' W 001°42'2 3.3
2019-Jun-06 03:30N 49°47' W 001°40'2 3.1
2019-Jun-06 03:00N 49°47' W 001°37'1 2.9
2019-Jun-06 02:30N 49°47' W 001°35'1 2.5
2019-Jun-06 02:00N 49°47' W 001°33'1 2.2
2019-Jun-06 01:30N 49°47' W 001°32'1 2.4
2019-Jun-06 01:00N 49°46' W 001°30'510.5
2019-Jun-06 00:30N 49°51' W 001°29'  

Dump ship's entire track history